MGGT/GUA METAR and TAF weather

Enter ICAO airport designator
Station Type Date Time Source
MGGT METAR 2019/02/18 04:00 UTC NOAA

MGGT 180400Z 18010KT 6000 BKN016 19/16 Q1025 A3027 HZ


Station Type Date Time Source
MGGT Decoded METAR 2019/02/18 04:00 UTC NOAA

Guatemala Aeropuertola Aurora , Guatemala (MGGT) 14-35N 090-31W 1489M
Feb 17, 2019 - 11:00 PM EST / 2019.02.18 0400 UTC
Wind: from the S (180 degrees) at 12 MPH (10 KT):0
Visibility: 3 mile(s):0
Sky conditions: mostly cloudy
Temperature: 66 F (19 C)
Dew Point: 60 F (16 C)
Relative Humidity: 82%
Pressure (altimeter): 30.27 in. Hg (1025 hPa)
ob: MGGT 180400Z 18010KT 6000 BKN016 19/16 Q1025 A3027 HZ
cycle: 4

Station Type Date Time Source
MGGT TAF 2019/02/17 18:36 UTC NOAA

TAF TAF MGGT 171700Z 1718/1818 18008KT 9999 FEW020 TX27/1720Z TN16/1812Z
TEMPO 1718/1802 18014KT 7000 SCT020
BECMG 1800/1802 7000 FEW016 PROB40
TEMPO 1804/1814 VRB03KT 3000 BR BKN012
BECMG 1816/1818 FEW018


Example: see airport list